sensor_id;sensor_type;location;lat;lon;timestamp;pressure;altitude;pressure_sealevel;temperature;humidity
7309;BME280;3695;53.330;9.876;2023-12-28T00:00:38;99676.75;;;10.88;63.14
7309;BME280;3695;53.330;9.876;2023-12-28T00:03:05;99678.44;;;10.80;63.61
7309;BME280;3695;53.330;9.876;2023-12-28T00:05:33;99672.34;;;10.84;63.75
7309;BME280;3695;53.330;9.876;2023-12-28T00:07:59;99680.22;;;10.83;63.44
7309;BME280;3695;53.330;9.876;2023-12-28T00:10:27;99688.13;;;10.92;63.07
7309;BME280;3695;53.330;9.876;2023-12-28T00:12:54;99677.56;;;10.78;62.94
7309;BME280;3695;53.330;9.876;2023-12-28T00:15:22;99669.75;;;10.93;63.08
7309;BME280;3695;53.330;9.876;2023-12-28T00:17:48;99689.00;;;10.85;63.08
7309;BME280;3695;53.330;9.876;2023-12-28T00:20:15;99685.50;;;10.89;63.26
7309;BME280;3695;53.330;9.876;2023-12-28T00:22:43;99698.72;;;11.01;63.02
7309;BME280;3695;53.330;9.876;2023-12-28T00:25:09;99704.78;;;10.85;62.77
7309;BME280;3695;53.330;9.876;2023-12-28T00:27:36;99701.28;;;10.89;63.07
7309;BME280;3695;53.330;9.876;2023-12-28T00:30:04;99698.63;;;10.83;63.76
7309;BME280;3695;53.330;9.876;2023-12-28T00:32:31;99701.16;;;10.66;63.95
7309;BME280;3695;53.330;9.876;2023-12-28T00:34:58;99708.13;;;10.64;64.14
7309;BME280;3695;53.330;9.876;2023-12-28T00:37:24;99721.25;;;10.59;64.52
7309;BME280;3695;53.330;9.876;2023-12-28T00:39:52;99711.59;;;10.57;64.76
7309;BME280;3695;53.330;9.876;2023-12-28T00:42:19;99711.69;;;10.72;64.80
7309;BME280;3695;53.330;9.876;2023-12-28T00:44:45;99712.66;;;10.85;65.08
7309;BME280;3695;53.330;9.876;2023-12-28T00:47:12;99725.72;;;10.74;65.25
7309;BME280;3695;53.330;9.876;2023-12-28T00:49:38;99728.34;;;10.74;65.37
7309;BME280;3695;53.330;9.876;2023-12-28T00:52:05;99728.31;;;10.70;65.78
7309;BME280;3695;53.330;9.876;2023-12-28T00:54:32;99735.28;;;10.68;65.87
7309;BME280;3695;53.330;9.876;2023-12-28T00:56:59;99726.56;;;10.73;66.28
7309;BME280;3695;53.330;9.876;2023-12-28T00:59:26;99714.28;;;10.66;66.40
7309;BME280;3695;53.330;9.876;2023-12-28T01:02:00;99721.25;;;10.63;66.20
7309;BME280;3695;53.330;9.876;2023-12-28T01:04:27;99715.94;;;10.56;66.41
7309;BME280;3695;53.330;9.876;2023-12-28T01:06:53;99733.56;;;10.67;66.72
7309;BME280;3695;53.330;9.876;2023-12-28T01:09:20;99729.16;;;10.66;66.48
7309;BME280;3695;53.330;9.876;2023-12-28T01:11:46;99722.22;;;10.75;66.36
7309;BME280;3695;53.330;9.876;2023-12-28T01:14:13;99723.97;;;10.76;66.70
7309;BME280;3695;53.330;9.876;2023-12-28T01:16:40;99725.75;;;10.80;66.64
7309;BME280;3695;53.330;9.876;2023-12-28T01:19:09;99728.44;;;10.85;66.48
7309;BME280;3695;53.330;9.876;2023-12-28T01:21:36;99729.28;;;10.85;66.42
7309;BME280;3695;53.330;9.876;2023-12-28T01:24:02;99725.84;;;10.91;66.65
7309;BME280;3695;53.330;9.876;2023-12-28T01:26:29;99718.78;;;10.84;66.71
7309;BME280;3695;53.330;9.876;2023-12-28T01:28:55;99729.31;;;10.90;66.89
7309;BME280;3695;53.330;9.876;2023-12-28T01:31:22;99731.94;;;10.88;66.96
7309;BME280;3695;53.330;9.876;2023-12-28T01:33:49;99723.25;;;11.00;66.83
7309;BME280;3695;53.330;9.876;2023-12-28T01:36:18;99739.88;;;10.96;66.81
7309;BME280;3695;53.330;9.876;2023-12-28T01:38:44;99749.53;;;11.00;66.66
7309;BME280;3695;53.330;9.876;2023-12-28T01:41:11;99742.59;;;11.14;66.64
7309;BME280;3695;53.330;9.876;2023-12-28T01:43:39;99746.97;;;11.17;66.47
7309;BME280;3695;53.330;9.876;2023-12-28T01:46:05;99754.00;;;11.13;66.66
7309;BME280;3695;53.330;9.876;2023-12-28T01:48:33;99760.16;;;11.23;66.60
7309;BME280;3695;53.330;9.876;2023-12-28T01:51:00;99754.00;;;11.18;66.29
7309;BME280;3695;53.330;9.876;2023-12-28T01:53:28;99766.34;;;11.31;66.31
7309;BME280;3695;53.330;9.876;2023-12-28T01:55:55;99763.69;;;11.23;66.18
7309;BME280;3695;53.330;9.876;2023-12-28T01:58:22;99770.66;;;11.21;66.40
7309;BME280;3695;53.330;9.876;2023-12-28T02:00:50;99787.41;;;11.34;65.94
7309;BME280;3695;53.330;9.876;2023-12-28T02:03:16;99770.75;;;11.39;65.83
7309;BME280;3695;53.330;9.876;2023-12-28T02:05:42;99763.75;;;11.32;65.95
7309;BME280;3695;53.330;9.876;2023-12-28T02:08:09;99783.94;;;11.38;65.70
7309;BME280;3695;53.330;9.876;2023-12-28T02:10:38;99777.84;;;11.50;65.71
7309;BME280;3695;53.330;9.876;2023-12-28T02:13:05;99780.47;;;11.50;65.12
7309;BME280;3695;53.330;9.876;2023-12-28T02:15:31;99771.66;;;11.46;65.41
7309;BME280;3695;53.330;9.876;2023-12-28T02:18:01;99788.28;;;11.36;65.68
7309;BME280;3695;53.330;9.876;2023-12-28T02:20:29;99797.00;;;11.24;65.86
7309;BME280;3695;53.330;9.876;2023-12-28T02:22:56;99793.53;;;11.31;66.35
7309;BME280;3695;53.330;9.876;2023-12-28T02:25:24;99791.78;;;11.30;65.95
7309;BME280;3695;53.330;9.876;2023-12-28T02:27:51;99789.16;;;11.35;65.80
7309;BME280;3695;53.330;9.876;2023-12-28T02:30:20;99787.44;;;11.41;65.75
7309;BME280;3695;53.330;9.876;2023-12-28T02:32:54;99783.09;;;11.53;65.88
7309;BME280;3695;53.330;9.876;2023-12-28T02:35:24;99786.63;;;11.58;65.57
7309;BME280;3695;53.330;9.876;2023-12-28T02:37:54;99776.91;;;11.40;65.90
7309;BME280;3695;53.330;9.876;2023-12-28T02:40:23;99777.81;;;11.47;65.71
7309;BME280;3695;53.330;9.876;2023-12-28T02:42:51;99762.88;;;11.39;65.67
7309;BME280;3695;53.330;9.876;2023-12-28T02:45:18;99762.88;;;11.36;65.68
7309;BME280;3695;53.330;9.876;2023-12-28T02:47:44;99776.06;;;11.42;65.58
7309;BME280;3695;53.330;9.876;2023-12-28T02:50:11;99777.84;;;11.50;65.66
7309;BME280;3695;53.330;9.876;2023-12-28T02:52:37;99769.03;;;11.38;65.54
7309;BME280;3695;53.330;9.876;2023-12-28T02:55:05;99773.41;;;11.42;65.59
7309;BME280;3695;53.330;9.876;2023-12-28T02:57:33;99780.44;;;11.39;65.44
7309;BME280;3695;53.330;9.876;2023-12-28T03:00:04;99773.41;;;11.41;65.62
7309;BME280;3695;53.330;9.876;2023-12-28T03:02:31;99768.97;;;11.29;65.69
7309;BME280;3695;53.330;9.876;2023-12-28T03:04:58;99766.31;;;11.20;65.81
7309;BME280;3695;53.330;9.876;2023-12-28T03:07:25;99769.88;;;11.31;65.84
7309;BME280;3695;53.330;9.876;2023-12-28T03:09:51;99776.91;;;11.37;65.82
7309;BME280;3695;53.330;9.876;2023-12-28T03:12:18;99777.75;;;11.31;66.03
7309;BME280;3695;53.330;9.876;2023-12-28T03:14:45;99772.53;;;11.42;65.70
7309;BME280;3695;53.330;9.876;2023-12-28T03:17:12;99776.03;;;11.39;65.89
7309;BME280;3695;53.330;9.876;2023-12-28T03:19:39;99769.94;;;11.48;65.76
7309;BME280;3695;53.330;9.876;2023-12-28T03:22:05;99773.38;;;11.36;65.68
7309;BME280;3695;53.330;9.876;2023-12-28T03:24:32;99776.81;;;11.23;66.22
7309;BME280;3695;53.330;9.876;2023-12-28T03:26:58;99772.41;;;11.16;66.31
7309;BME280;3695;53.330;9.876;2023-12-28T03:29:26;99769.75;;;11.09;66.73
7309;BME280;3695;53.330;9.876;2023-12-28T03:31:54;99778.53;;;11.15;66.36
7309;BME280;3695;53.330;9.876;2023-12-28T03:34:21;99766.28;;;11.17;66.58
7309;BME280;3695;53.330;9.876;2023-12-28T03:36:48;99761.09;;;11.31;66.21
7309;BME280;3695;53.330;9.876;2023-12-28T03:39:14;99780.38;;;11.27;66.07
7309;BME280;3695;53.330;9.876;2023-12-28T03:41:41;99781.22;;;11.24;66.12
7309;BME280;3695;53.330;9.876;2023-12-28T03:44:08;99782.97;;;11.21;66.11
7309;BME280;3695;53.330;9.876;2023-12-28T03:46:34;99779.41;;;11.16;66.36
7309;BME280;3695;53.330;9.876;2023-12-28T03:49:02;99782.09;;;11.20;66.05
7309;BME280;3695;53.330;9.876;2023-12-28T03:51:29;99777.72;;;11.28;65.98
7309;BME280;3695;53.330;9.876;2023-12-28T03:53:55;99781.19;;;11.21;66.06
7309;BME280;3695;53.330;9.876;2023-12-28T03:56:23;99782.06;;;11.22;66.04
7309;BME280;3695;53.330;9.876;2023-12-28T03:58:51;99775.84;;;11.09;66.29
7309;BME280;3695;53.330;9.876;2023-12-28T04:01:18;99775.91;;;11.14;66.34
7309;BME280;3695;53.330;9.876;2023-12-28T04:03:45;99763.59;;;11.08;66.24
7309;BME280;3695;53.330;9.876;2023-12-28T04:06:13;99775.94;;;11.18;66.36
7309;BME280;3695;53.330;9.876;2023-12-28T04:08:40;99768.06;;;11.23;66.16
7309;BME280;3695;53.330;9.876;2023-12-28T04:11:06;99776.84;;;11.26;66.02
7309;BME280;3695;53.330;9.876;2023-12-28T04:13:33;99767.16;;;11.19;66.28
7309;BME280;3695;53.330;9.876;2023-12-28T04:15:59;99769.69;;;10.96;66.35
7309;BME280;3695;53.330;9.876;2023-12-28T04:18:26;99753.03;;;10.96;67.10
7309;BME280;3695;53.330;9.876;2023-12-28T04:20:53;99763.53;;;10.96;67.17
7309;BME280;3695;53.330;9.876;2023-12-28T04:23:20;99765.41;;;11.18;66.70
7309;BME280;3695;53.330;9.876;2023-12-28T04:25:47;99760.13;;;11.12;66.77
7309;BME280;3695;53.330;9.876;2023-12-28T04:28:14;99759.28;;;11.22;66.44
7309;BME280;3695;53.330;9.876;2023-12-28T04:30:41;99763.66;;;11.22;66.21
7309;BME280;3695;53.330;9.876;2023-12-28T04:33:07;99768.94;;;11.20;66.32
7309;BME280;3695;53.330;9.876;2023-12-28T04:35:34;99759.25;;;11.18;66.61
7309;BME280;3695;53.330;9.876;2023-12-28T04:38:00;99760.13;;;11.12;66.55
7309;BME280;3695;53.330;9.876;2023-12-28T04:40:28;99763.69;;;11.25;66.30
7309;BME280;3695;53.330;9.876;2023-12-28T04:42:55;99754.09;;;11.31;66.15
7309;BME280;3695;53.330;9.876;2023-12-28T04:45:21;99756.69;;;11.28;66.32
7309;BME280;3695;53.330;9.876;2023-12-28T04:47:48;99762.84;;;11.32;65.97
7309;BME280;3695;53.330;9.876;2023-12-28T04:50:14;99762.81;;;11.26;65.97
7309;BME280;3695;53.330;9.876;2023-12-28T04:52:41;99761.97;;;11.31;66.09
7309;BME280;3695;53.330;9.876;2023-12-28T04:55:07;99765.44;;;11.24;66.30
7309;BME280;3695;53.330;9.876;2023-12-28T04:57:35;99769.78;;;11.16;66.34
7309;BME280;3695;53.330;9.876;2023-12-28T05:00:02;99778.47;;;11.09;66.43
7309;BME280;3695;53.330;9.876;2023-12-28T05:02:29;99777.69;;;11.22;66.53
7309;BME280;3695;53.330;9.876;2023-12-28T05:04:56;99779.53;;;11.40;66.17
7309;BME280;3695;53.330;9.876;2023-12-28T05:07:22;99769.03;;;11.41;66.04
7309;BME280;3695;53.330;9.876;2023-12-28T05:09:49;99776.03;;;11.38;66.05
7309;BME280;3695;53.330;9.876;2023-12-28T05:12:15;99772.47;;;11.25;66.39
7309;BME280;3695;53.330;9.876;2023-12-28T05:14:43;99776.88;;;11.35;66.56
7309;BME280;3695;53.330;9.876;2023-12-28T05:17:10;99777.75;;;11.30;66.14
7309;BME280;3695;53.330;9.876;2023-12-28T05:19:36;99783.94;;;11.38;66.17
7309;BME280;3695;53.330;9.876;2023-12-28T05:22:03;99776.00;;;11.33;66.03
7309;BME280;3695;53.330;9.876;2023-12-28T05:24:31;99776.91;;;11.40;66.29
7309;BME280;3695;53.330;9.876;2023-12-28T05:26:58;99763.78;;;11.45;66.15
7309;BME280;3695;53.330;9.876;2023-12-28T05:29:24;99776.88;;;11.32;66.18
7309;BME280;3695;53.330;9.876;2023-12-28T05:31:52;99784.88;;;11.51;65.96
7309;BME280;3695;53.330;9.876;2023-12-28T05:34:19;99766.41;;;11.38;66.23
7309;BME280;3695;53.330;9.876;2023-12-28T05:36:45;99774.28;;;11.38;66.29
7309;BME280;3695;53.330;9.876;2023-12-28T05:39:12;99784.84;;;11.48;66.17
7309;BME280;3695;53.330;9.876;2023-12-28T05:41:39;99787.47;;;11.52;66.04
7309;BME280;3695;53.330;9.876;2023-12-28T05:44:06;99785.75;;;11.51;66.12
7309;BME280;3695;53.330;9.876;2023-12-28T05:46:32;99779.63;;;11.61;65.82
7309;BME280;3695;53.330;9.876;2023-12-28T05:49:00;99772.66;;;11.71;65.93
7309;BME280;3695;53.330;9.876;2023-12-28T05:51:27;99772.66;;;11.72;65.70
7309;BME280;3695;53.330;9.876;2023-12-28T05:53:53;99771.81;;;11.78;65.59
7309;BME280;3695;53.330;9.876;2023-12-28T05:56:20;99784.91;;;11.66;65.95
7309;BME280;3695;53.330;9.876;2023-12-28T05:58:46;99772.66;;;11.72;65.72
7309;BME280;3695;53.330;9.876;2023-12-28T06:01:13;99791.06;;;11.69;65.74
7309;BME280;3695;53.330;9.876;2023-12-28T06:03:39;99790.19;;;11.67;65.76
7309;BME280;3695;53.330;9.876;2023-12-28T06:06:07;99791.06;;;11.71;65.47
7309;BME280;3695;53.330;9.876;2023-12-28T06:08:34;99773.59;;;11.79;65.61
7309;BME280;3695;53.330;9.876;2023-12-28T06:11:00;99784.13;;;11.79;65.72
7309;BME280;3695;53.330;9.876;2023-12-28T06:13:27;99785.88;;;11.80;65.44
7309;BME280;3695;53.330;9.876;2023-12-28T06:15:53;99796.41;;;11.78;65.87
7309;BME280;3695;53.330;9.876;2023-12-28T06:18:20;99800.81;;;11.81;65.58
7309;BME280;3695;53.330;9.876;2023-12-28T06:20:47;99792.06;;;11.91;65.10
7309;BME280;3695;53.330;9.876;2023-12-28T06:23:15;99785.06;;;12.02;65.03
7309;BME280;3695;53.330;9.876;2023-12-28T06:25:41;99784.22;;;12.11;65.00
7309;BME280;3695;53.330;9.876;2023-12-28T06:28:08;99775.38;;;11.95;65.35
7309;BME280;3695;53.330;9.876;2023-12-28T06:30:35;99790.31;;;11.87;65.58
7309;BME280;3695;53.330;9.876;2023-12-28T06:33:01;99792.09;;;11.99;65.24
7309;BME280;3695;53.330;9.876;2023-12-28T06:35:28;99776.31;;;12.09;64.71
7309;BME280;3695;53.330;9.876;2023-12-28T06:37:54;99773.69;;;12.15;64.90
7309;BME280;3695;53.330;9.876;2023-12-28T06:40:22;99774.56;;;12.14;64.77
7309;BME280;3695;53.330;9.876;2023-12-28T06:42:49;99775.44;;;12.22;64.83
7309;BME280;3695;53.330;9.876;2023-12-28T06:45:15;99770.16;;;12.26;64.75
7309;BME280;3695;53.330;9.876;2023-12-28T06:47:42;99778.09;;;12.29;64.45
7309;BME280;3695;53.330;9.876;2023-12-28T06:50:09;99785.13;;;12.40;64.39
7309;BME280;3695;53.330;9.876;2023-12-28T06:52:35;99771.06;;;12.52;63.89
7309;BME280;3695;53.330;9.876;2023-12-28T06:55:02;99766.69;;;12.46;63.88
7309;BME280;3695;53.330;9.876;2023-12-28T06:57:30;99774.59;;;12.57;63.97
7309;BME280;3695;53.330;9.876;2023-12-28T06:59:56;99794.81;;;12.47;63.68
7309;BME280;3695;53.330;9.876;2023-12-28T07:02:25;99772.81;;;12.48;63.81
7309;BME280;3695;53.330;9.876;2023-12-28T07:04:51;99772.81;;;12.50;63.84
7309;BME280;3695;53.330;9.876;2023-12-28T07:07:18;99780.72;;;12.54;63.47
7309;BME280;3695;53.330;9.876;2023-12-28T07:09:44;99781.59;;;12.61;63.45
7309;BME280;3695;53.330;9.876;2023-12-28T07:12:11;99786.00;;;12.67;63.45
7309;BME280;3695;53.330;9.876;2023-12-28T07:14:39;99779.84;;;12.57;63.39
7309;BME280;3695;53.330;9.876;2023-12-28T07:17:05;99785.09;;;12.66;63.47
7309;BME280;3695;53.330;9.876;2023-12-28T07:19:32;99781.59;;;12.67;63.44
7309;BME280;3695;53.330;9.876;2023-12-28T07:21:58;99778.97;;;12.56;63.41
7309;BME280;3695;53.330;9.876;2023-12-28T07:24:25;99780.72;;;12.62;63.38
7309;BME280;3695;53.330;9.876;2023-12-28T07:26:51;99769.31;;;12.57;63.29
7309;BME280;3695;53.330;9.876;2023-12-28T07:29:18;99772.81;;;12.68;63.28
7309;BME280;3695;53.330;9.876;2023-12-28T07:31:46;99775.44;;;12.67;63.04
7309;BME280;3695;53.330;9.876;2023-12-28T07:34:12;99778.09;;;12.68;63.23
7309;BME280;3695;53.330;9.876;2023-12-28T07:36:39;99774.56;;;12.69;63.03
7309;BME280;3695;53.330;9.876;2023-12-28T07:39:08;99779.84;;;12.75;62.99
7309;BME280;3695;53.330;9.876;2023-12-28T07:41:35;99771.06;;;12.82;63.02
7309;BME280;3695;53.330;9.876;2023-12-28T07:44:01;99776.34;;;12.76;63.03
7309;BME280;3695;53.330;9.876;2023-12-28T07:46:28;99786.00;;;12.77;62.60
7309;BME280;3695;53.330;9.876;2023-12-28T07:48:56;99788.59;;;12.91;62.75
7309;BME280;3695;53.330;9.876;2023-12-28T07:51:22;99784.22;;;13.07;62.57
7309;BME280;3695;53.330;9.876;2023-12-28T07:53:49;99786.84;;;12.91;62.42
7309;BME280;3695;53.330;9.876;2023-12-28T07:56:15;99785.09;;;12.86;62.39
7309;BME280;3695;53.330;9.876;2023-12-28T07:58:42;99785.97;;;12.86;62.70
7309;BME280;3695;53.330;9.876;2023-12-28T08:01:11;99779.81;;;12.90;62.74
7309;BME280;3695;53.330;9.876;2023-12-28T08:03:38;99787.75;;;13.01;62.55
7309;BME280;3695;53.330;9.876;2023-12-28T08:06:06;99802.66;;;13.03;62.41
7309;BME280;3695;53.330;9.876;2023-12-28T08:08:33;99797.41;;;12.94;62.40
7309;BME280;3695;53.330;9.876;2023-12-28T08:10:59;99799.16;;;12.92;62.49
7309;BME280;3695;53.330;9.876;2023-12-28T08:13:26;99783.31;;;13.04;62.44
7309;BME280;3695;53.330;9.876;2023-12-28T08:15:52;99785.06;;;13.09;62.42
7309;BME280;3695;53.330;9.876;2023-12-28T08:18:19;99780.72;;;13.01;62.12
7309;BME280;3695;53.330;9.876;2023-12-28T08:20:45;99792.13;;;13.00;62.32
7309;BME280;3695;53.330;9.876;2023-12-28T08:23:13;99781.56;;;12.97;62.48
7309;BME280;3695;53.330;9.876;2023-12-28T08:25:40;99777.16;;;13.05;62.43
7309;BME280;3695;53.330;9.876;2023-12-28T08:28:06;99774.50;;;13.09;62.27
7309;BME280;3695;53.330;9.876;2023-12-28T08:30:33;99778.06;;;13.20;61.84
7309;BME280;3695;53.330;9.876;2023-12-28T08:33:00;99781.59;;;13.13;61.68
7309;BME280;3695;53.330;9.876;2023-12-28T08:35:26;99768.38;;;13.16;61.90
7309;BME280;3695;53.330;9.876;2023-12-28T08:37:53;99771.88;;;13.10;62.12
7309;BME280;3695;53.330;9.876;2023-12-28T08:40:21;99783.34;;;13.14;62.08
7309;BME280;3695;53.330;9.876;2023-12-28T08:42:47;99763.97;;;13.24;61.90
7309;BME280;3695;53.330;9.876;2023-12-28T08:45:14;99772.75;;;13.21;61.78
7309;BME280;3695;53.330;9.876;2023-12-28T08:47:40;99776.31;;;13.19;61.81
7309;BME280;3695;53.330;9.876;2023-12-28T08:50:08;99780.69;;;13.23;61.66
7309;BME280;3695;53.330;9.876;2023-12-28T08:52:34;99792.13;;;13.16;62.05
7309;BME280;3695;53.330;9.876;2023-12-28T08:55:01;99776.25;;;13.29;62.01
7309;BME280;3695;53.330;9.876;2023-12-28T08:57:29;99783.31;;;13.21;61.60
7309;BME280;3695;53.330;9.876;2023-12-28T08:59:56;99763.97;;;13.15;61.73
7309;BME280;3695;53.330;9.876;2023-12-28T09:02:27;99780.66;;;13.27;61.80
7309;BME280;3695;53.330;9.876;2023-12-28T09:04:52;99779.75;;;13.34;61.43
7309;BME280;3695;53.330;9.876;2023-12-28T09:07:19;99781.53;;;13.37;61.04
7309;BME280;3695;53.330;9.876;2023-12-28T09:09:45;99781.50;;;13.41;61.00
7309;BME280;3695;53.330;9.876;2023-12-28T09:12:12;99786.72;;;13.52;61.12
7309;BME280;3695;53.330;9.876;2023-12-28T09:14:40;99780.59;;;13.50;60.64
7309;BME280;3695;53.330;9.876;2023-12-28T09:17:06;99785.00;;;13.50;60.69
7309;BME280;3695;53.330;9.876;2023-12-28T09:19:33;99783.22;;;13.56;60.57
7309;BME280;3695;53.330;9.876;2023-12-28T09:21:59;99779.66;;;13.57;60.73
7309;BME280;3695;53.330;9.876;2023-12-28T09:24:26;99784.94;;;13.57;60.31
7309;BME280;3695;53.330;9.876;2023-12-28T09:26:53;99783.13;;;13.68;60.52
7309;BME280;3695;53.330;9.876;2023-12-28T09:29:19;99798.13;;;13.68;60.33
7309;BME280;3695;53.330;9.876;2023-12-28T09:31:47;99790.19;;;13.71;60.16
7309;BME280;3695;53.330;9.876;2023-12-28T09:34:14;99796.34;;;13.68;60.02
7309;BME280;3695;53.330;9.876;2023-12-28T09:36:40;99809.53;;;13.77;59.96
7309;BME280;3695;53.330;9.876;2023-12-28T09:39:07;99791.97;;;13.67;59.56
7309;BME280;3695;53.330;9.876;2023-12-28T09:41:36;99807.78;;;13.72;59.49
7309;BME280;3695;53.330;9.876;2023-12-28T09:44:09;99814.81;;;13.77;59.67
7309;BME280;3695;53.330;9.876;2023-12-28T09:46:41;99791.97;;;13.64;60.14
7309;BME280;3695;53.330;9.876;2023-12-28T09:49:09;99793.72;;;13.62;60.30
7309;BME280;3695;53.330;9.876;2023-12-28T09:51:35;99800.78;;;13.66;59.89
7309;BME280;3695;53.330;9.876;2023-12-28T09:54:03;99784.03;;;13.63;60.15
7309;BME280;3695;53.330;9.876;2023-12-28T09:56:30;99781.41;;;13.67;59.82
7309;BME280;3695;53.330;9.876;2023-12-28T09:58:58;99777.00;;;13.68;59.67
7309;BME280;3695;53.330;9.876;2023-12-28T10:01:25;99768.19;;;13.69;59.77
7309;BME280;3695;53.330;9.876;2023-12-28T10:03:52;99776.97;;;13.71;59.91
7309;BME280;3695;53.330;9.876;2023-12-28T10:06:20;99774.28;;;13.84;59.77
7309;BME280;3695;53.330;9.876;2023-12-28T10:08:47;99789.25;;;13.85;59.33
7309;BME280;3695;53.330;9.876;2023-12-28T10:11:14;99784.03;;;13.64;59.34
7309;BME280;3695;53.330;9.876;2023-12-28T10:13:41;99784.00;;;13.78;59.61
7309;BME280;3695;53.330;9.876;2023-12-28T10:16:09;99791.03;;;13.77;59.58
7309;BME280;3695;53.330;9.876;2023-12-28T10:18:35;99804.25;;;13.77;59.29
7309;BME280;3695;53.330;9.876;2023-12-28T10:21:03;99791.97;;;13.67;59.67
7309;BME280;3695;53.330;9.876;2023-12-28T10:23:31;99797.22;;;13.73;59.70
7309;BME280;3695;53.330;9.876;2023-12-28T10:25:57;99791.94;;;13.70;59.42
7309;BME280;3695;53.330;9.876;2023-12-28T10:28:25;99796.28;;;13.83;59.44
7309;BME280;3695;53.330;9.876;2023-12-28T10:30:54;99775.16;;;13.82;59.52
7309;BME280;3695;53.330;9.876;2023-12-28T10:33:21;99788.38;;;13.83;59.61
7309;BME280;3695;53.330;9.876;2023-12-28T10:35:49;99782.13;;;13.94;59.44
7309;BME280;3695;53.330;9.876;2023-12-28T10:38:17;99782.13;;;13.94;59.21
7309;BME280;3695;53.330;9.876;2023-12-28T10:40:46;99801.56;;;13.83;59.30
7309;BME280;3695;53.330;9.876;2023-12-28T10:43:16;99785.69;;;13.91;59.58
7309;BME280;3695;53.330;9.876;2023-12-28T10:45:46;99782.25;;;13.74;59.13
7309;BME280;3695;53.330;9.876;2023-12-28T10:48:13;99789.25;;;13.81;59.71
7309;BME280;3695;53.330;9.876;2023-12-28T10:50:41;99793.63;;;13.86;59.26
7309;BME280;3695;53.330;9.876;2023-12-28T10:53:17;99792.78;;;13.78;59.79
7309;BME280;3695;53.330;9.876;2023-12-28T10:55:53;99792.75;;;13.83;59.79
7309;BME280;3695;53.330;9.876;2023-12-28T10:58:35;99795.41;;;13.84;59.30
7309;BME280;3695;53.330;9.876;2023-12-28T11:01:06;99795.44;;;13.78;59.40
7309;BME280;3695;53.330;9.876;2023-12-28T11:03:37;99776.00;;;13.89;59.38
7309;BME280;3695;53.330;9.876;2023-12-28T11:06:05;99766.28;;;13.95;59.21
7309;BME280;3695;53.330;9.876;2023-12-28T11:08:34;99778.53;;;14.10;58.84
7309;BME280;3695;53.330;9.876;2023-12-28T11:11:03;99772.38;;;14.05;58.37
7309;BME280;3695;53.330;9.876;2023-12-28T11:13:32;99776.81;;;14.01;58.70
7309;BME280;3695;53.330;9.876;2023-12-28T11:15:59;99774.97;;;14.11;58.98
7309;BME280;3695;53.330;9.876;2023-12-28T11:18:26;99768.00;;;14.01;59.10
7309;BME280;3695;53.330;9.876;2023-12-28T11:20:54;99784.75;;;14.00;59.24
7309;BME280;3695;53.330;9.876;2023-12-28T11:23:20;99760.09;;;14.01;58.69
7309;BME280;3695;53.330;9.876;2023-12-28T11:25:47;99770.63;;;14.10;59.04
7309;BME280;3695;53.330;9.876;2023-12-28T11:28:15;99772.38;;;14.05;58.97
7309;BME280;3695;53.330;9.876;2023-12-28T11:30:41;99780.19;;;14.23;58.92
7309;BME280;3695;53.330;9.876;2023-12-28T11:33:09;99779.34;;;14.21;58.61
7309;BME280;3695;53.330;9.876;2023-12-28T11:35:36;99788.19;;;14.12;58.49
7309;BME280;3695;53.330;9.876;2023-12-28T11:38:06;99774.94;;;14.21;58.71
7309;BME280;3695;53.330;9.876;2023-12-28T11:40:40;99776.75;;;14.16;58.83
7309;BME280;3695;53.330;9.876;2023-12-28T11:43:17;99783.72;;;14.23;58.59
7309;BME280;3695;53.330;9.876;2023-12-28T11:45:48;99783.66;;;14.30;58.52
7309;BME280;3695;53.330;9.876;2023-12-28T11:48:22;99766.97;;;14.26;58.57
7309;BME280;3695;53.330;9.876;2023-12-28T11:50:49;99755.47;;;14.33;58.46
7309;BME280;3695;53.330;9.876;2023-12-28T11:53:16;99758.97;;;14.40;58.61
7309;BME280;3695;53.330;9.876;2023-12-28T11:55:44;99759.00;;;14.31;58.62
7309;BME280;3695;53.330;9.876;2023-12-28T11:58:11;99764.22;;;14.43;58.38
7309;BME280;3695;53.330;9.876;2023-12-28T12:00:39;99764.22;;;14.43;58.20
7309;BME280;3695;53.330;9.876;2023-12-28T12:03:09;99766.00;;;14.45;58.65
7309;BME280;3695;53.330;9.876;2023-12-28T12:05:36;99756.31;;;14.35;58.18
7309;BME280;3695;53.330;9.876;2023-12-28T12:08:03;99763.38;;;14.39;58.01
7309;BME280;3695;53.330;9.876;2023-12-28T12:10:29;99758.06;;;14.36;58.19
7309;BME280;3695;53.330;9.876;2023-12-28T12:12:57;99757.22;;;14.37;58.30
7309;BME280;3695;53.330;9.876;2023-12-28T12:15:24;99759.88;;;14.31;58.49
7309;BME280;3695;53.330;9.876;2023-12-28T12:17:52;99754.59;;;14.34;58.14
7309;BME280;3695;53.330;9.876;2023-12-28T12:20:19;99761.63;;;14.38;58.39
7309;BME280;3695;53.330;9.876;2023-12-28T12:22:46;99753.75;;;14.23;57.96
7309;BME280;3695;53.330;9.876;2023-12-28T12:25:12;99758.06;;;14.44;58.30
7309;BME280;3695;53.330;9.876;2023-12-28T12:27:39;99779.09;;;14.57;57.98
7309;BME280;3695;53.330;9.876;2023-12-28T12:30:07;99770.50;;;14.26;58.20
7309;BME280;3695;53.330;9.876;2023-12-28T12:32:35;99762.50;;;14.39;57.95
7309;BME280;3695;53.330;9.876;2023-12-28T12:35:06;99749.34;;;14.28;57.73
7309;BME280;3695;53.330;9.876;2023-12-28T12:37:33;99754.59;;;14.34;58.11
7309;BME280;3695;53.330;9.876;2023-12-28T12:39:59;99746.66;;;14.30;58.22
7309;BME280;3695;53.330;9.876;2023-12-28T12:42:26;99765.22;;;14.28;58.31
7309;BME280;3695;53.330;9.876;2023-12-28T12:44:53;99755.47;;;14.32;58.23
7309;BME280;3695;53.330;9.876;2023-12-28T12:47:18;99775.81;;;14.19;58.24
7309;BME280;3695;53.330;9.876;2023-12-28T12:49:45;99768.81;;;14.15;58.63
7309;BME280;3695;53.330;9.876;2023-12-28T12:52:13;99766.16;;;14.15;58.55
7309;BME280;3695;53.330;9.876;2023-12-28T12:54:39;99784.72;;;14.09;58.68
7309;BME280;3695;53.330;9.876;2023-12-28T12:57:06;99774.16;;;14.06;59.12
7309;BME280;3695;53.330;9.876;2023-12-28T12:59:33;99767.97;;;14.08;58.96
7309;BME280;3695;53.330;9.876;2023-12-28T13:02:00;99765.38;;;14.04;59.23
7309;BME280;3695;53.330;9.876;2023-12-28T13:04:26;99759.22;;;14.03;59.17
7309;BME280;3695;53.330;9.876;2023-12-28T13:06:53;99764.50;;;13.99;59.25
7309;BME280;3695;53.330;9.876;2023-12-28T13:09:21;99768.84;;;14.06;59.23
7309;BME280;3695;53.330;9.876;2023-12-28T13:11:47;99772.38;;;14.06;59.03
7309;BME280;3695;53.330;9.876;2023-12-28T13:14:15;99760.88;;;14.15;58.92
7309;BME280;3695;53.330;9.876;2023-12-28T13:16:41;99778.53;;;14.10;59.13
7309;BME280;3695;53.330;9.876;2023-12-28T13:19:08;99759.94;;;14.25;58.89
7309;BME280;3695;53.330;9.876;2023-12-28T13:21:34;99751.19;;;14.15;58.96